sensor_id;sensor_type;location;lat;lon;timestamp;noise_LAeq;noise_LA_min;noise_LA_max;noise_LA01;noise_LA95
17594;Laerm;8916;47.086;15.920;2023-03-26T00:00:12;49.31;48.29;50.41;;
17594;Laerm;8916;47.086;15.920;2023-03-26T00:02:42;49.31;48.32;50.46;;
17594;Laerm;8916;47.086;15.920;2023-03-26T00:05:10;49.32;48.28;50.50;;
17594;Laerm;8916;47.086;15.920;2023-03-26T00:07:41;49.32;48.05;50.64;;
17594;Laerm;8916;47.086;15.920;2023-03-26T00:10:10;49.32;48.36;50.48;;
17594;Laerm;8916;47.086;15.920;2023-03-26T00:12:39;49.32;47.96;50.45;;
17594;Laerm;8916;47.086;15.920;2023-03-26T00:15:10;49.33;48.29;50.56;;
17594;Laerm;8916;47.086;15.920;2023-03-26T00:17:39;49.33;48.21;50.39;;
17594;Laerm;8916;47.086;15.920;2023-03-26T00:20:09;49.33;48.15;50.60;;
17594;Laerm;8916;47.086;15.920;2023-03-26T00:22:40;49.33;48.12;50.66;;
17594;Laerm;8916;47.086;15.920;2023-03-26T00:25:09;49.34;48.16;50.45;;
17594;Laerm;8916;47.086;15.920;2023-03-26T00:27:38;49.34;48.31;50.47;;
17594;Laerm;8916;47.086;15.920;2023-03-26T00:30:10;49.33;48.16;50.58;;
17594;Laerm;8916;47.086;15.920;2023-03-26T00:32:39;49.32;48.21;50.45;;
17594;Laerm;8916;47.086;15.920;2023-03-26T00:35:09;49.32;48.23;50.65;;
17594;Laerm;8916;47.086;15.920;2023-03-26T00:37:39;49.34;48.12;50.40;;
17594;Laerm;8916;47.086;15.920;2023-03-26T00:40:11;49.34;48.26;50.30;;
17594;Laerm;8916;47.086;15.920;2023-03-26T00:42:40;49.33;48.21;50.48;;
17594;Laerm;8916;47.086;15.920;2023-03-26T00:45:11;49.34;48.23;50.56;;
17594;Laerm;8916;47.086;15.920;2023-03-26T00:47:40;49.35;48.10;50.65;;
17594;Laerm;8916;47.086;15.920;2023-03-26T00:50:11;49.34;48.25;50.34;;
17594;Laerm;8916;47.086;15.920;2023-03-26T00:52:42;49.34;48.32;50.41;;
17594;Laerm;8916;47.086;15.920;2023-03-26T00:55:12;49.34;48.34;50.58;;
17594;Laerm;8916;47.086;15.920;2023-03-26T00:57:44;49.33;48.03;50.45;;
17594;Laerm;8916;47.086;15.920;2023-03-26T01:00:18;49.34;48.21;50.58;;
17594;Laerm;8916;47.086;15.920;2023-03-26T01:02:55;49.35;48.31;50.94;;
17594;Laerm;8916;47.086;15.920;2023-03-26T01:05:48;49.33;48.15;50.43;;
17594;Laerm;8916;47.086;15.920;2023-03-26T01:08:27;49.34;48.15;50.46;;
17594;Laerm;8916;47.086;15.920;2023-03-26T01:11:01;49.34;48.21;50.34;;
17594;Laerm;8916;47.086;15.920;2023-03-26T01:13:36;49.35;48.05;50.40;;
17594;Laerm;8916;47.086;15.920;2023-03-26T01:16:16;49.34;48.08;50.46;;
17594;Laerm;8916;47.086;15.920;2023-03-26T01:18:47;49.33;48.25;50.46;;
17594;Laerm;8916;47.086;15.920;2023-03-26T01:21:21;49.34;48.16;50.49;;
17594;Laerm;8916;47.086;15.920;2023-03-26T01:23:59;49.34;48.10;50.34;;
17594;Laerm;8916;47.086;15.920;2023-03-26T01:27:00;49.35;48.28;50.40;;
17594;Laerm;8916;47.086;15.920;2023-03-26T01:29:38;49.34;48.26;50.59;;
17594;Laerm;8916;47.086;15.920;2023-03-26T01:32:30;49.35;48.26;50.39;;
17594;Laerm;8916;47.086;15.920;2023-03-26T01:35:19;49.36;48.00;50.69;;
17594;Laerm;8916;47.086;15.920;2023-03-26T01:38:00;49.36;48.18;50.40;;
17594;Laerm;8916;47.086;15.920;2023-03-26T01:40:44;49.37;48.12;50.40;;
17594;Laerm;8916;47.086;15.920;2023-03-26T01:43:25;49.36;48.20;50.42;;
17594;Laerm;8916;47.086;15.920;2023-03-26T01:46:00;49.35;48.21;50.39;;
17594;Laerm;8916;47.086;15.920;2023-03-26T01:48:34;49.35;48.39;50.42;;
17594;Laerm;8916;47.086;15.920;2023-03-26T01:51:06;49.35;48.13;50.51;;
17594;Laerm;8916;47.086;15.920;2023-03-26T01:53:39;49.36;48.28;50.35;;
17594;Laerm;8916;47.086;15.920;2023-03-26T01:56:16;49.37;48.40;50.55;;
17594;Laerm;8916;47.086;15.920;2023-03-26T01:59:01;49.37;48.32;50.45;;
17594;Laerm;8916;47.086;15.920;2023-03-26T02:01:40;49.37;48.26;50.36;;
17594;Laerm;8916;47.086;15.920;2023-03-26T02:04:21;49.38;48.20;50.48;;
17594;Laerm;8916;47.086;15.920;2023-03-26T02:06:57;49.37;48.42;50.42;;
17594;Laerm;8916;47.086;15.920;2023-03-26T02:09:38;49.37;48.18;50.57;;
17594;Laerm;8916;47.086;15.920;2023-03-26T02:12:14;49.37;48.31;50.77;;
17594;Laerm;8916;47.086;15.920;2023-03-26T02:14:43;49.38;48.18;50.38;;
17594;Laerm;8916;47.086;15.920;2023-03-26T02:17:12;49.37;48.37;50.58;;
17594;Laerm;8916;47.086;15.920;2023-03-26T02:19:41;49.37;48.18;50.59;;
17594;Laerm;8916;47.086;15.920;2023-03-26T02:22:11;49.38;48.31;50.61;;
17594;Laerm;8916;47.086;15.920;2023-03-26T02:24:44;49.37;48.36;50.41;;
17594;Laerm;8916;47.086;15.920;2023-03-26T02:27:14;49.36;48.28;50.60;;
17594;Laerm;8916;47.086;15.920;2023-03-26T02:29:45;49.37;48.21;50.41;;
17594;Laerm;8916;47.086;15.920;2023-03-26T02:32:20;49.35;48.05;50.36;;
17594;Laerm;8916;47.086;15.920;2023-03-26T02:34:49;49.36;48.29;50.48;;
17594;Laerm;8916;47.086;15.920;2023-03-26T02:37:20;49.36;48.07;50.34;;
17594;Laerm;8916;47.086;15.920;2023-03-26T02:39:56;49.33;48.00;50.47;;
17594;Laerm;8916;47.086;15.920;2023-03-26T02:42:31;49.34;48.07;50.56;;
17594;Laerm;8916;47.086;15.920;2023-03-26T02:45:00;49.34;48.28;50.52;;
17594;Laerm;8916;47.086;15.920;2023-03-26T02:47:48;49.36;48.29;50.48;;
17594;Laerm;8916;47.086;15.920;2023-03-26T02:50:44;49.36;48.26;50.34;;
17594;Laerm;8916;47.086;15.920;2023-03-26T02:53:48;49.37;48.23;50.51;;
17594;Laerm;8916;47.086;15.920;2023-03-26T02:56:41;49.36;48.42;50.48;;
17594;Laerm;8916;47.086;15.920;2023-03-26T02:59:44;49.36;48.20;50.42;;
17594;Laerm;8916;47.086;15.920;2023-03-26T03:02:35;49.35;48.23;50.53;;
17594;Laerm;8916;47.086;15.920;2023-03-26T03:05:25;49.37;48.36;50.40;;
17594;Laerm;8916;47.086;15.920;2023-03-26T03:08:16;49.37;48.23;50.39;;
17594;Laerm;8916;47.086;15.920;2023-03-26T03:11:09;49.35;48.37;50.48;;
17594;Laerm;8916;47.086;15.920;2023-03-26T03:13:43;49.36;48.20;50.60;;
17594;Laerm;8916;47.086;15.920;2023-03-26T03:16:17;49.37;48.26;50.59;;
17594;Laerm;8916;47.086;15.920;2023-03-26T03:18:47;49.37;48.26;50.47;;
17594;Laerm;8916;47.086;15.920;2023-03-26T03:21:24;49.38;48.29;50.47;;
17594;Laerm;8916;47.086;15.920;2023-03-26T03:23:54;49.38;48.37;50.46;;
17594;Laerm;8916;47.086;15.920;2023-03-26T03:26:30;49.38;48.25;50.49;;
17594;Laerm;8916;47.086;15.920;2023-03-26T03:29:12;49.37;48.29;50.76;;
17594;Laerm;8916;47.086;15.920;2023-03-26T03:31:42;49.37;48.25;50.40;;
17594;Laerm;8916;47.086;15.920;2023-03-26T03:34:25;49.37;48.28;50.65;;
17594;Laerm;8916;47.086;15.920;2023-03-26T03:36:54;49.38;48.16;50.74;;
17594;Laerm;8916;47.086;15.920;2023-03-26T03:39:41;49.39;48.32;50.58;;
17594;Laerm;8916;47.086;15.920;2023-03-26T03:42:13;49.38;48.20;50.46;;
17594;Laerm;8916;47.086;15.920;2023-03-26T03:44:42;49.38;48.42;50.58;;
17594;Laerm;8916;47.086;15.920;2023-03-26T03:47:36;49.38;48.23;50.56;;
17594;Laerm;8916;47.086;15.920;2023-03-26T03:50:07;49.37;48.18;50.64;;
17594;Laerm;8916;47.086;15.920;2023-03-26T03:52:43;49.37;48.23;50.46;;
17594;Laerm;8916;47.086;15.920;2023-03-26T03:55:15;49.37;48.29;50.49;;
17594;Laerm;8916;47.086;15.920;2023-03-26T03:57:50;49.37;48.23;50.60;;
17594;Laerm;8916;47.086;15.920;2023-03-26T04:00:21;49.39;48.31;50.51;;
17594;Laerm;8916;47.086;15.920;2023-03-26T04:03:12;49.38;48.10;50.49;;
17594;Laerm;8916;47.086;15.920;2023-03-26T04:05:42;49.38;48.25;50.40;;
17594;Laerm;8916;47.086;15.920;2023-03-26T04:08:17;49.39;48.37;50.62;;
17594;Laerm;8916;47.086;15.920;2023-03-26T04:10:51;49.39;48.26;50.48;;
17594;Laerm;8916;47.086;15.920;2023-03-26T04:13:40;49.39;48.32;50.51;;
17594;Laerm;8916;47.086;15.920;2023-03-26T04:16:19;49.39;48.37;50.50;;
17594;Laerm;8916;47.086;15.920;2023-03-26T04:18:50;49.38;48.28;50.40;;
17594;Laerm;8916;47.086;15.920;2023-03-26T04:21:19;49.39;48.28;50.52;;
17594;Laerm;8916;47.086;15.920;2023-03-26T04:23:48;49.40;48.45;50.62;;
17594;Laerm;8916;47.086;15.920;2023-03-26T04:26:37;49.39;48.34;50.70;;
17594;Laerm;8916;47.086;15.920;2023-03-26T04:29:13;49.39;48.32;50.46;;
17594;Laerm;8916;47.086;15.920;2023-03-26T04:31:45;49.39;48.36;51.03;;
17594;Laerm;8916;47.086;15.920;2023-03-26T04:34:21;49.39;48.23;50.61;;
17594;Laerm;8916;47.086;15.920;2023-03-26T04:37:00;49.38;48.20;50.35;;
17594;Laerm;8916;47.086;15.920;2023-03-26T04:39:33;49.38;48.32;50.48;;
17594;Laerm;8916;47.086;15.920;2023-03-26T04:42:26;49.39;48.31;50.56;;
17594;Laerm;8916;47.086;15.920;2023-03-26T04:45:07;49.40;48.36;50.56;;
17594;Laerm;8916;47.086;15.920;2023-03-26T04:47:40;49.40;48.32;50.37;;
17594;Laerm;8916;47.086;15.920;2023-03-26T04:50:11;49.40;48.37;50.78;;
17594;Laerm;8916;47.086;15.920;2023-03-26T04:52:41;49.40;48.13;50.47;;
17594;Laerm;8916;47.086;15.920;2023-03-26T04:55:40;49.40;48.37;50.53;;
17594;Laerm;8916;47.086;15.920;2023-03-26T04:58:20;49.40;48.26;50.58;;
17594;Laerm;8916;47.086;15.920;2023-03-26T05:01:01;49.39;48.31;50.67;;
17594;Laerm;8916;47.086;15.920;2023-03-26T05:03:38;49.38;48.23;50.70;;
17594;Laerm;8916;47.086;15.920;2023-03-26T05:06:13;49.39;48.34;50.47;;
17594;Laerm;8916;47.086;15.920;2023-03-26T05:08:42;49.39;48.28;50.48;;
17594;Laerm;8916;47.086;15.920;2023-03-26T05:11:19;49.39;48.21;50.89;;
17594;Laerm;8916;47.086;15.920;2023-03-26T05:13:48;49.38;48.21;50.58;;
17594;Laerm;8916;47.086;15.920;2023-03-26T05:16:17;49.39;48.40;50.34;;
17594;Laerm;8916;47.086;15.920;2023-03-26T05:18:51;49.39;48.32;50.62;;
17594;Laerm;8916;47.086;15.920;2023-03-26T05:21:23;49.38;48.32;50.47;;
17594;Laerm;8916;47.086;15.920;2023-03-26T05:23:52;49.37;48.20;50.36;;
17594;Laerm;8916;47.086;15.920;2023-03-26T05:26:22;49.37;47.98;50.48;;
17594;Laerm;8916;47.086;15.920;2023-03-26T05:28:51;49.37;48.39;50.31;;
17594;Laerm;8916;47.086;15.920;2023-03-26T05:31:26;49.37;48.15;50.43;;
17594;Laerm;8916;47.086;15.920;2023-03-26T05:33:58;49.38;48.37;50.48;;
17594;Laerm;8916;47.086;15.920;2023-03-26T05:36:29;49.38;48.43;50.49;;
17594;Laerm;8916;47.086;15.920;2023-03-26T05:39:18;49.37;48.34;50.78;;
17594;Laerm;8916;47.086;15.920;2023-03-26T05:42:01;49.37;48.42;50.42;;
17594;Laerm;8916;47.086;15.920;2023-03-26T05:44:42;49.37;48.28;50.40;;
17594;Laerm;8916;47.086;15.920;2023-03-26T05:47:20;49.36;48.31;50.53;;
17594;Laerm;8916;47.086;15.920;2023-03-26T05:49:49;49.37;48.29;50.43;;
17594;Laerm;8916;47.086;15.920;2023-03-26T05:52:21;49.37;48.10;50.36;;
17594;Laerm;8916;47.086;15.920;2023-03-26T05:55:10;49.37;48.34;50.37;;
17594;Laerm;8916;47.086;15.920;2023-03-26T05:57:58;49.35;48.21;50.58;;
17594;Laerm;8916;47.086;15.920;2023-03-26T06:00:46;49.35;48.25;50.51;;
17594;Laerm;8916;47.086;15.920;2023-03-26T06:03:27;49.34;48.34;50.46;;
17594;Laerm;8916;47.086;15.920;2023-03-26T06:06:16;49.35;48.28;50.51;;
17594;Laerm;8916;47.086;15.920;2023-03-26T06:08:55;49.34;48.12;50.34;;
17594;Laerm;8916;47.086;15.920;2023-03-26T06:11:30;49.35;48.03;50.63;;
17594;Laerm;8916;47.086;15.920;2023-03-26T06:14:00;49.34;48.21;50.44;;
17594;Laerm;8916;47.086;15.920;2023-03-26T06:16:31;49.33;48.28;50.57;;
17594;Laerm;8916;47.086;15.920;2023-03-26T06:19:20;49.33;48.05;50.45;;
17594;Laerm;8916;47.086;15.920;2023-03-26T06:21:55;49.33;48.15;50.44;;
17594;Laerm;8916;47.086;15.920;2023-03-26T06:24:31;49.32;48.23;50.51;;
17594;Laerm;8916;47.086;15.920;2023-03-26T06:27:20;49.31;48.10;50.46;;
17594;Laerm;8916;47.086;15.920;2023-03-26T06:30:09;49.29;48.10;50.52;;
17594;Laerm;8916;47.086;15.920;2023-03-26T06:32:46;49.28;48.00;50.37;;
17594;Laerm;8916;47.086;15.920;2023-03-26T06:35:21;49.27;48.18;50.37;;
17594;Laerm;8916;47.086;15.920;2023-03-26T06:37:51;49.27;48.20;50.34;;
17594;Laerm;8916;47.086;15.920;2023-03-26T06:40:22;49.28;48.20;50.41;;
17594;Laerm;8916;47.086;15.920;2023-03-26T06:42:53;49.27;48.18;50.49;;
17594;Laerm;8916;47.086;15.920;2023-03-26T06:45:55;49.26;48.13;50.30;;
17594;Laerm;8916;47.086;15.920;2023-03-26T06:48:43;49.25;48.16;50.29;;
17594;Laerm;8916;47.086;15.920;2023-03-26T06:51:11;49.24;48.16;50.44;;
17594;Laerm;8916;47.086;15.920;2023-03-26T06:53:59;49.23;48.03;50.25;;
17594;Laerm;8916;47.086;15.920;2023-03-26T06:56:48;49.21;48.08;50.28;;
17594;Laerm;8916;47.086;15.920;2023-03-26T06:59:26;49.21;48.13;50.42;;
17594;Laerm;8916;47.086;15.920;2023-03-26T07:02:30;49.20;48.18;50.47;;
17594;Laerm;8916;47.086;15.920;2023-03-26T07:05:18;49.20;47.81;50.55;;
17594;Laerm;8916;47.086;15.920;2023-03-26T07:08:07;49.20;48.10;50.56;;
17594;Laerm;8916;47.086;15.920;2023-03-26T07:10:55;49.19;48.08;50.33;;
17594;Laerm;8916;47.086;15.920;2023-03-26T07:13:45;49.19;48.13;50.42;;
17594;Laerm;8916;47.086;15.920;2023-03-26T07:16:33;49.16;48.08;50.33;;
17594;Laerm;8916;47.086;15.920;2023-03-26T07:19:29;49.12;48.03;50.29;;
17594;Laerm;8916;47.086;15.920;2023-03-26T07:21:59;49.11;48.03;50.25;;
17594;Laerm;8916;47.086;15.920;2023-03-26T07:24:48;49.11;47.95;50.20;;
17594;Laerm;8916;47.086;15.920;2023-03-26T07:27:48;49.11;48.07;50.23;;
17594;Laerm;8916;47.086;15.920;2023-03-26T07:30:37;49.14;47.96;50.25;;
17594;Laerm;8916;47.086;15.920;2023-03-26T07:33:26;49.14;48.00;50.20;;
17594;Laerm;8916;47.086;15.920;2023-03-26T07:36:28;49.11;48.10;50.31;;
17594;Laerm;8916;47.086;15.920;2023-03-26T07:39:39;49.09;47.93;50.26;;
17594;Laerm;8916;47.086;15.920;2023-03-26T07:42:50;49.09;47.96;50.32;;
17594;Laerm;8916;47.086;15.920;2023-03-26T07:45:46;49.08;47.98;50.30;;
17594;Laerm;8916;47.086;15.920;2023-03-26T07:48:37;49.07;48.00;50.66;;
17594;Laerm;8916;47.086;15.920;2023-03-26T07:51:13;49.07;47.96;50.26;;
17594;Laerm;8916;47.086;15.920;2023-03-26T07:53:53;49.06;47.90;50.15;;
17594;Laerm;8916;47.086;15.920;2023-03-26T07:56:50;49.05;47.98;50.24;;
17594;Laerm;8916;47.086;15.920;2023-03-26T07:59:39;49.07;47.81;50.30;;
17594;Laerm;8916;47.086;15.920;2023-03-26T08:06:04;49.06;47.83;50.15;;
17594;Laerm;8916;47.086;15.920;2023-03-26T08:08:47;49.06;47.88;50.27;;
17594;Laerm;8916;47.086;15.920;2023-03-26T08:11:39;49.04;48.00;50.25;;
17594;Laerm;8916;47.086;15.920;2023-03-26T08:14:31;49.04;48.07;50.11;;
17594;Laerm;8916;47.086;15.920;2023-03-26T08:17:06;49.04;47.95;50.14;;
17594;Laerm;8916;47.086;15.920;2023-03-26T08:19:50;49.04;48.03;50.34;;
17594;Laerm;8916;47.086;15.920;2023-03-26T08:22:28;49.05;47.88;50.10;;
17594;Laerm;8916;47.086;15.920;2023-03-26T08:25:19;49.06;47.86;50.29;;
17594;Laerm;8916;47.086;15.920;2023-03-26T08:28:03;49.05;47.95;50.29;;
17594;Laerm;8916;47.086;15.920;2023-03-26T08:30:34;49.06;47.84;50.31;;
17594;Laerm;8916;47.086;15.920;2023-03-26T08:33:11;49.05;48.00;50.20;;
17594;Laerm;8916;47.086;15.920;2023-03-26T08:35:44;49.05;47.90;50.11;;
17594;Laerm;8916;47.086;15.920;2023-03-26T08:38:17;49.04;47.98;50.21;;
17594;Laerm;8916;47.086;15.920;2023-03-26T08:48:59;49.03;47.96;50.27;;
17594;Laerm;8916;47.086;15.920;2023-03-26T08:52:19;49.02;48.02;50.18;;
17594;Laerm;8916;47.086;15.920;2023-03-26T08:55:48;49.02;47.98;50.23;;
17594;Laerm;8916;47.086;15.920;2023-03-26T08:59:33;49.02;47.93;50.16;;
17594;Laerm;8916;47.086;15.920;2023-03-26T09:02:42;49.03;47.95;50.53;;
17594;Laerm;8916;47.086;15.920;2023-03-26T09:12:06;49.01;47.93;50.20;;
17594;Laerm;8916;47.086;15.920;2023-03-26T09:15:20;49.00;47.96;50.17;;
17594;Laerm;8916;47.086;15.920;2023-03-26T09:21:11;48.99;47.81;50.12;;
17594;Laerm;8916;47.086;15.920;2023-03-26T09:24:16;48.97;47.84;50.13;;
17594;Laerm;8916;47.086;15.920;2023-03-26T09:27:04;48.94;47.79;50.14;;
17594;Laerm;8916;47.086;15.920;2023-03-26T09:30:24;48.94;47.86;50.24;;
17594;Laerm;8916;47.086;15.920;2023-03-26T09:33:40;48.92;47.61;50.23;;
17594;Laerm;8916;47.086;15.920;2023-03-26T09:39:16;48.88;47.70;50.03;;
17594;Laerm;8916;47.086;15.920;2023-03-26T09:42:04;48.86;47.77;50.15;;
17594;Laerm;8916;47.086;15.920;2023-03-26T09:48:37;48.85;47.63;50.27;;
17594;Laerm;8916;47.086;15.920;2023-03-26T09:51:31;48.88;47.44;50.52;;
17594;Laerm;8916;47.086;15.920;2023-03-26T09:54:46;48.88;47.77;49.94;;
17594;Laerm;8916;47.086;15.920;2023-03-26T09:57:46;48.88;47.70;50.28;;
17594;Laerm;8916;47.086;15.920;2023-03-26T10:00:29;48.87;47.77;50.03;;
17594;Laerm;8916;47.086;15.920;2023-03-26T10:03:18;48.86;47.59;50.03;;
17594;Laerm;8916;47.086;15.920;2023-03-26T10:06:01;48.85;47.63;50.11;;
17594;Laerm;8916;47.086;15.920;2023-03-26T10:08:49;48.83;47.52;50.54;;
17594;Laerm;8916;47.086;15.920;2023-03-26T10:11:31;48.81;47.74;50.02;;
17594;Laerm;8916;47.086;15.920;2023-03-26T10:14:16;48.84;47.63;49.97;;
17594;Laerm;8916;47.086;15.920;2023-03-26T10:16:57;48.86;47.77;50.04;;
17594;Laerm;8916;47.086;15.920;2023-03-26T10:19:46;48.89;47.77;50.02;;
17594;Laerm;8916;47.086;15.920;2023-03-26T10:22:34;48.89;47.24;50.11;;
17594;Laerm;8916;47.086;15.920;2023-03-26T10:25:24;48.90;47.74;49.91;;
17594;Laerm;8916;47.086;15.920;2023-03-26T10:28:13;48.88;47.84;50.09;;
17594;Laerm;8916;47.086;15.920;2023-03-26T10:31:22;48.88;47.72;50.07;;
17594;Laerm;8916;47.086;15.920;2023-03-26T10:34:03;48.89;47.79;49.92;;
17594;Laerm;8916;47.086;15.920;2023-03-26T10:37:05;48.88;47.86;50.00;;
17594;Laerm;8916;47.086;15.920;2023-03-26T10:39:57;48.87;47.83;50.13;;
17594;Laerm;8916;47.086;15.920;2023-03-26T10:43:19;48.86;47.70;49.95;;
17594;Laerm;8916;47.086;15.920;2023-03-26T10:49:00;48.86;47.68;50.29;;
17594;Laerm;8916;47.086;15.920;2023-03-26T10:51:45;48.83;47.83;50.09;;
17594;Laerm;8916;47.086;15.920;2023-03-26T10:54:34;48.82;47.67;50.01;;
17594;Laerm;8916;47.086;15.920;2023-03-26T10:57:17;48.78;47.57;50.04;;
17594;Laerm;8916;47.086;15.920;2023-03-26T10:59:54;48.76;47.63;49.95;;
17594;Laerm;8916;47.086;15.920;2023-03-26T11:02:28;48.77;47.61;49.94;;
17594;Laerm;8916;47.086;15.920;2023-03-26T11:05:26;48.76;47.74;50.01;;
17594;Laerm;8916;47.086;15.920;2023-03-26T11:08:09;48.77;47.76;49.88;;
17594;Laerm;8916;47.086;15.920;2023-03-26T11:10:49;48.79;47.30;50.08;;
17594;Laerm;8916;47.086;15.920;2023-03-26T11:13:37;48.81;47.74;50.16;;
17594;Laerm;8916;47.086;15.920;2023-03-26T11:16:17;48.80;47.68;50.02;;
17594;Laerm;8916;47.086;15.920;2023-03-26T11:18:57;48.79;47.70;50.20;;
17594;Laerm;8916;47.086;15.920;2023-03-26T11:21:33;48.77;47.70;49.84;;
17594;Laerm;8916;47.086;15.920;2023-03-26T11:24:40;48.76;47.55;50.06;;
17594;Laerm;8916;47.086;15.920;2023-03-26T11:27:22;48.76;47.50;49.87;;
17594;Laerm;8916;47.086;15.920;2023-03-26T11:30:02;48.75;47.70;50.01;;
17594;Laerm;8916;47.086;15.920;2023-03-26T11:32:43;48.74;47.65;50.07;;
17594;Laerm;8916;47.086;15.920;2023-03-26T11:35:20;48.76;47.68;50.02;;
17594;Laerm;8916;47.086;15.920;2023-03-26T11:38:15;48.79;47.46;50.08;;
17594;Laerm;8916;47.086;15.920;2023-03-26T11:40:49;48.79;47.50;50.07;;
17594;Laerm;8916;47.086;15.920;2023-03-26T11:43:39;48.77;47.72;50.10;;
17594;Laerm;8916;47.086;15.920;2023-03-26T11:46:11;48.75;47.63;49.91;;
17594;Laerm;8916;47.086;15.920;2023-03-26T11:48:47;48.71;47.65;49.91;;
17594;Laerm;8916;47.086;15.920;2023-03-26T11:51:22;48.73;47.61;50.00;;
17594;Laerm;8916;47.086;15.920;2023-03-26T11:53:53;48.72;47.54;50.02;;
17594;Laerm;8916;47.086;15.920;2023-03-26T11:56:28;48.72;47.59;50.01;;
17594;Laerm;8916;47.086;15.920;2023-03-26T11:59:02;48.65;47.50;49.91;;
17594;Laerm;8916;47.086;15.920;2023-03-26T12:01:48;48.66;47.50;49.90;;
17594;Laerm;8916;47.086;15.920;2023-03-26T12:04:26;48.69;47.55;49.92;;
17594;Laerm;8916;47.086;15.920;2023-03-26T12:07:14;48.72;47.57;49.88;;
17594;Laerm;8916;47.086;15.920;2023-03-26T12:09:50;48.66;47.38;49.88;;
17594;Laerm;8916;47.086;15.920;2023-03-26T12:12:21;48.64;47.43;49.91;;
17594;Laerm;8916;47.086;15.920;2023-03-26T12:14:53;48.62;47.57;49.79;;
17594;Laerm;8916;47.086;15.920;2023-03-26T12:17:30;48.61;47.61;49.79;;
17594;Laerm;8916;47.086;15.920;2023-03-26T12:20:30;48.64;47.44;49.81;;
17594;Laerm;8916;47.086;15.920;2023-03-26T12:23:03;48.68;47.63;49.91;;
17594;Laerm;8916;47.086;15.920;2023-03-26T12:25:36;48.68;47.63;49.82;;
17594;Laerm;8916;47.086;15.920;2023-03-26T12:28:16;48.71;47.54;49.95;;
17594;Laerm;8916;47.086;15.920;2023-03-26T12:30:57;48.73;47.28;49.83;;
17594;Laerm;8916;47.086;15.920;2023-03-26T12:33:32;48.74;47.54;49.94;;
17594;Laerm;8916;47.086;15.920;2023-03-26T12:36:19;48.72;47.60;50.01;;
17594;Laerm;8916;47.086;15.920;2023-03-26T12:38:53;48.71;47.54;49.97;;
17594;Laerm;8916;47.086;15.920;2023-03-26T12:41:43;48.68;47.46;49.90;;
17594;Laerm;8916;47.086;15.920;2023-03-26T12:44:43;48.66;47.46;50.08;;
17594;Laerm;8916;47.086;15.920;2023-03-26T12:47:32;48.70;47.67;49.93;;
17594;Laerm;8916;47.086;15.920;2023-03-26T12:50:27;48.71;47.50;50.03;;
17594;Laerm;8916;47.086;15.920;2023-03-26T12:53:17;48.69;47.65;49.83;;
17594;Laerm;8916;47.086;15.920;2023-03-26T12:55:59;48.70;47.57;50.07;;
17594;Laerm;8916;47.086;15.920;2023-03-26T12:58:46;48.69;47.46;49.84;;
17594;Laerm;8916;47.086;15.920;2023-03-26T13:01:30;48.70;47.44;50.00;;
17594;Laerm;8916;47.086;15.920;2023-03-26T13:07:15;48.70;47.57;50.44;;
17594;Laerm;8916;47.086;15.920;2023-03-26T13:12:59;48.73;47.59;49.96;;
17594;Laerm;8916;47.086;15.920;2023-03-26T13:15:37;48.73;47.57;49.93;;
17594;Laerm;8916;47.086;15.920;2023-03-26T13:18:21;48.73;47.59;50.00;;
17594;Laerm;8916;47.086;15.920;2023-03-26T13:21:00;48.72;47.65;49.90;;
17594;Laerm;8916;47.086;15.920;2023-03-26T13:23:45;48.66;47.44;49.88;;
17594;Laerm;8916;47.086;15.920;2023-03-26T13:26:34;48.64;47.44;50.01;;
17594;Laerm;8916;47.086;15.920;2023-03-26T13:29:13;48.64;47.48;49.70;;
17594;Laerm;8916;47.086;15.920;2023-03-26T13:31:51;48.67;47.61;49.87;;
17594;Laerm;8916;47.086;15.920;2023-03-26T13:34:31;48.65;47.50;49.89;;
17594;Laerm;8916;47.086;15.920;2023-03-26T13:37:11;48.65;47.55;50.15;;
17594;Laerm;8916;47.086;15.920;2023-03-26T13:39:55;48.66;47.57;50.08;;
17594;Laerm;8916;47.086;15.920;2023-03-26T13:42:42;48.64;47.48;49.70;;
17594;Laerm;8916;47.086;15.920;2023-03-26T13:45:30;48.65;47.32;49.79;;
17594;Laerm;8916;47.086;15.920;2023-03-26T13:48:02;48.65;47.63;49.88;;
17594;Laerm;8916;47.086;15.920;2023-03-26T13:50:38;48.66;47.57;49.82;;
17594;Laerm;8916;47.086;15.920;2023-03-26T13:53:14;48.64;47.46;50.07;;
17594;Laerm;8916;47.086;15.920;2023-03-26T13:55:50;48.65;47.46;49.92;;
17594;Laerm;8916;47.086;15.920;2023-03-26T13:58:31;48.67;47.57;50.18;;
17594;Laerm;8916;47.086;15.920;2023-03-26T14:01:06;48.67;47.55;49.85;;
17594;Laerm;8916;47.086;15.920;2023-03-26T14:03:49;48.67;47.59;49.92;;
17594;Laerm;8916;47.086;15.920;2023-03-26T14:06:41;48.65;47.36;49.89;;
17594;Laerm;8916;47.086;15.920;2023-03-26T14:09:18;48.67;47.57;50.25;;
17594;Laerm;8916;47.086;15.920;2023-03-26T14:12:05;48.67;47.63;50.12;;
17594;Laerm;8916;47.086;15.920;2023-03-26T14:14:51;48.70;47.57;49.84;;
17594;Laerm;8916;47.086;15.920;2023-03-26T14:17:25;48.71;47.68;49.87;;
17594;Laerm;8916;47.086;15.920;2023-03-26T14:23:38;48.74;47.46;50.01;;
17594;Laerm;8916;47.086;15.920;2023-03-26T14:26:28;48.74;47.46;49.98;;
17594;Laerm;8916;47.086;15.920;2023-03-26T14:29:29;48.75;47.72;49.92;;
17594;Laerm;8916;47.086;15.920;2023-03-26T14:32:15;48.74;47.40;49.85;;
17594;Laerm;8916;47.086;15.920;2023-03-26T14:35:05;48.76;47.55;50.19;;
17594;Laerm;8916;47.086;15.920;2023-03-26T14:38:25;48.75;47.63;50.37;;
17594;Laerm;8916;47.086;15.920;2023-03-26T14:41:17;48.76;47.61;50.00;;
17594;Laerm;8916;47.086;15.920;2023-03-26T14:44:54;48.77;47.55;50.03;;
17594;Laerm;8916;47.086;15.920;2023-03-26T14:47:33;48.79;47.65;50.29;;
17594;Laerm;8916;47.086;15.920;2023-03-26T14:50:44;48.79;47.65;49.93;;
17594;Laerm;8916;47.086;15.920;2023-03-26T14:53:26;48.81;47.65;49.90;;
17594;Laerm;8916;47.086;15.920;2023-03-26T14:56:32;48.81;47.68;49.89;;
17594;Laerm;8916;47.086;15.920;2023-03-26T15:12:19;48.82;47.76;49.97;;
17594;Laerm;8916;47.086;15.920;2023-03-26T15:21:59;48.82;47.46;50.20;;
17594;Laerm;8916;47.086;15.920;2023-03-26T15:25:26;48.82;47.63;50.08;;
17594;Laerm;8916;47.086;15.920;2023-03-26T15:31:58;48.82;47.81;50.21;;
17594;Laerm;8916;47.086;15.920;2023-03-26T15:35:12;48.83;47.72;50.21;;
17594;Laerm;8916;47.086;15.920;2023-03-26T15:41:27;48.84;47.83;49.98;;
17594;Laerm;8916;47.086;15.920;2023-03-26T15:44:26;48.84;47.77;50.09;;
17594;Laerm;8916;47.086;15.920;2023-03-26T15:47:40;48.84;47.61;50.26;;
17594;Laerm;8916;47.086;15.920;2023-03-26T15:50:30;48.84;47.63;50.10;;
17594;Laerm;8916;47.086;15.920;2023-03-26T15:53:13;48.84;47.76;50.41;;
17594;Laerm;8916;47.086;15.920;2023-03-26T15:56:14;48.84;47.55;50.04;;
17594;Laerm;8916;47.086;15.920;2023-03-26T15:58:51;48.85;47.76;49.97;;
17594;Laerm;8916;47.086;15.920;2023-03-26T16:01:37;48.85;47.77;49.89;;
17594;Laerm;8916;47.086;15.920;2023-03-26T16:04:22;48.85;47.79;50.08;;
17594;Laerm;8916;47.086;15.920;2023-03-26T16:06:58;48.85;47.83;50.00;;
17594;Laerm;8916;47.086;15.920;2023-03-26T16:09:47;48.87;47.57;50.00;;
17594;Laerm;8916;47.086;15.920;2023-03-26T16:12:34;48.86;47.74;50.03;;
17594;Laerm;8916;47.086;15.920;2023-03-26T16:15:29;48.86;47.65;49.98;;
17594;Laerm;8916;47.086;15.920;2023-03-26T16:18:31;48.88;47.76;50.17;;